sensor_id;sensor_type;location;lat;lon;timestamp;pressure;altitude;pressure_sealevel;temperature;humidity
63916;BME280;50094;51.356;-0.196;2022-10-31T00:01:00;100950.97;;;25.49;36.28
63916;BME280;50094;51.356;-0.196;2022-10-31T00:03:27;100949.34;;;25.60;36.18
63916;BME280;50094;51.356;-0.196;2022-10-31T00:05:55;100953.35;;;25.40;36.13
63916;BME280;50094;51.356;-0.196;2022-10-31T00:08:22;100955.40;;;25.64;36.11
63916;BME280;50094;51.356;-0.196;2022-10-31T00:10:50;100955.48;;;25.61;36.13
63916;BME280;50094;51.356;-0.196;2022-10-31T00:13:17;100955.63;;;25.78;36.15
63916;BME280;50094;51.356;-0.196;2022-10-31T00:15:45;100957.35;;;25.69;36.21
63916;BME280;50094;51.356;-0.196;2022-10-31T00:18:13;100956.49;;;25.45;36.23
63916;BME280;50094;51.356;-0.196;2022-10-31T00:20:41;100954.50;;;25.52;36.18
63916;BME280;50094;51.356;-0.196;2022-10-31T00:23:09;100954.92;;;25.44;36.24
63916;BME280;50094;51.356;-0.196;2022-10-31T00:25:38;100953.20;;;25.43;36.26
63916;BME280;50094;51.356;-0.196;2022-10-31T00:28:07;100953.19;;;25.71;36.23
63916;BME280;50094;51.356;-0.196;2022-10-31T00:30:36;100948.96;;;25.52;36.19
63916;BME280;50094;51.356;-0.196;2022-10-31T00:33:04;100950.71;;;25.29;36.18
63916;BME280;50094;51.356;-0.196;2022-10-31T00:35:31;100953.73;;;25.53;36.14
63916;BME280;50094;51.356;-0.196;2022-10-31T00:37:59;100953.09;;;26.00;36.16
63916;BME280;50094;51.356;-0.196;2022-10-31T00:40:27;100952.86;;;25.45;36.20
63916;BME280;50094;51.356;-0.196;2022-10-31T00:42:55;100952.30;;;25.48;36.19
63916;BME280;50094;51.356;-0.196;2022-10-31T00:45:22;100954.13;;;25.44;36.22
63916;BME280;50094;51.356;-0.196;2022-10-31T00:47:50;100951.31;;;25.48;36.19
63916;BME280;50094;51.356;-0.196;2022-10-31T00:50:18;100948.87;;;25.67;36.22
63916;BME280;50094;51.356;-0.196;2022-10-31T00:52:45;100950.94;;;25.91;36.24
63916;BME280;50094;51.356;-0.196;2022-10-31T00:55:14;100950.82;;;25.41;36.24
63916;BME280;50094;51.356;-0.196;2022-10-31T00:57:41;100951.48;;;25.40;36.26
63916;BME280;50094;51.356;-0.196;2022-10-31T01:00:10;100951.12;;;25.32;36.34
63916;BME280;50094;51.356;-0.196;2022-10-31T01:02:37;100948.87;;;25.54;36.35
63916;BME280;50094;51.356;-0.196;2022-10-31T01:05:05;100946.00;;;25.33;36.38
63916;BME280;50094;51.356;-0.196;2022-10-31T01:07:35;100943.58;;;25.39;36.30
63916;BME280;50094;51.356;-0.196;2022-10-31T01:10:03;100945.03;;;25.53;36.37
63916;BME280;50094;51.356;-0.196;2022-10-31T01:12:36;100948.48;;;25.28;36.40
63916;BME280;50094;51.356;-0.196;2022-10-31T01:15:04;100945.46;;;25.29;36.41
63916;BME280;50094;51.356;-0.196;2022-10-31T01:17:32;100942.16;;;25.50;36.40
63916;BME280;50094;51.356;-0.196;2022-10-31T01:19:59;100943.90;;;25.58;36.36
63916;BME280;50094;51.356;-0.196;2022-10-31T01:22:27;100943.82;;;25.49;36.42
63916;BME280;50094;51.356;-0.196;2022-10-31T01:24:55;100946.85;;;25.27;36.42
63916;BME280;50094;51.356;-0.196;2022-10-31T01:27:23;100945.62;;;25.83;36.36
63916;BME280;50094;51.356;-0.196;2022-10-31T01:29:51;100944.91;;;25.54;36.37
63916;BME280;50094;51.356;-0.196;2022-10-31T01:32:18;100945.99;;;25.50;36.41
63916;BME280;50094;51.356;-0.196;2022-10-31T01:34:46;100945.08;;;25.24;36.47
63916;BME280;50094;51.356;-0.196;2022-10-31T01:37:13;100945.37;;;25.45;36.48
63916;BME280;50094;51.356;-0.196;2022-10-31T01:39:41;100947.82;;;25.42;36.51
63916;BME280;50094;51.356;-0.196;2022-10-31T01:42:15;100944.50;;;25.40;36.54
63916;BME280;50094;51.356;-0.196;2022-10-31T01:44:55;100947.07;;;25.22;36.53
63916;BME280;50094;51.356;-0.196;2022-10-31T01:47:32;100942.85;;;25.46;36.52
63916;BME280;50094;51.356;-0.196;2022-10-31T01:50:03;100940.95;;;25.52;36.46
63916;BME280;50094;51.356;-0.196;2022-10-31T01:52:37;100941.71;;;25.47;36.50
63916;BME280;50094;51.356;-0.196;2022-10-31T01:55:09;100945.41;;;25.27;36.51
63916;BME280;50094;51.356;-0.196;2022-10-31T01:57:40;100944.03;;;25.73;36.53
63916;BME280;50094;51.356;-0.196;2022-10-31T02:00:12;100941.21;;;25.27;36.52
63916;BME280;50094;51.356;-0.196;2022-10-31T02:02:40;100942.27;;;25.56;36.45
63916;BME280;50094;51.356;-0.196;2022-10-31T02:05:11;100942.30;;;25.33;36.49
63916;BME280;50094;51.356;-0.196;2022-10-31T02:07:43;100939.45;;;25.76;36.52
63916;BME280;50094;51.356;-0.196;2022-10-31T02:10:13;100935.90;;;25.55;36.49
63916;BME280;50094;51.356;-0.196;2022-10-31T02:12:41;100934.64;;;25.81;36.48
63916;BME280;50094;51.356;-0.196;2022-10-31T02:15:09;100930.42;;;25.48;36.52
63916;BME280;50094;51.356;-0.196;2022-10-31T02:17:37;100931.08;;;25.47;36.57
63916;BME280;50094;51.356;-0.196;2022-10-31T02:20:13;100927.98;;;25.51;36.53
63916;BME280;50094;51.356;-0.196;2022-10-31T02:22:56;100922.83;;;25.50;36.56
63916;BME280;50094;51.356;-0.196;2022-10-31T02:25:53;100921.95;;;25.55;36.52
63916;BME280;50094;51.356;-0.196;2022-10-31T02:28:41;100917.43;;;25.51;36.55
63916;BME280;50094;51.356;-0.196;2022-10-31T02:31:23;100916.46;;;25.69;36.64
63916;BME280;50094;51.356;-0.196;2022-10-31T02:33:59;100915.47;;;25.36;36.69
63916;BME280;50094;51.356;-0.196;2022-10-31T02:36:32;100915.49;;;25.35;36.72
63916;BME280;50094;51.356;-0.196;2022-10-31T02:39:10;100916.24;;;25.39;36.71
63916;BME280;50094;51.356;-0.196;2022-10-31T02:41:47;100913.83;;;25.36;36.71
63916;BME280;50094;51.356;-0.196;2022-10-31T02:44:22;100913.11;;;25.41;36.68
63916;BME280;50094;51.356;-0.196;2022-10-31T02:46:57;100910.20;;;25.67;36.72
63916;BME280;50094;51.356;-0.196;2022-10-31T02:49:29;100906.36;;;25.45;36.67
63916;BME280;50094;51.356;-0.196;2022-10-31T02:52:00;100902.80;;;25.45;36.64
63916;BME280;50094;51.356;-0.196;2022-10-31T02:54:28;100900.44;;;25.45;36.63
63916;BME280;50094;51.356;-0.196;2022-10-31T02:56:59;100894.66;;;25.41;36.68
63916;BME280;50094;51.356;-0.196;2022-10-31T02:59:29;100900.80;;;25.39;36.69
63916;BME280;50094;51.356;-0.196;2022-10-31T03:02:09;100902.26;;;25.42;36.66
63916;BME280;50094;51.356;-0.196;2022-10-31T03:04:51;100900.70;;;25.49;36.62
63916;BME280;50094;51.356;-0.196;2022-10-31T03:07:28;100897.89;;;25.71;36.64
63916;BME280;50094;51.356;-0.196;2022-10-31T03:10:04;100896.84;;;25.46;36.63
63916;BME280;50094;51.356;-0.196;2022-10-31T03:12:38;100892.69;;;25.46;36.61
63916;BME280;50094;51.356;-0.196;2022-10-31T03:15:12;100887.81;;;25.45;36.63
63916;BME280;50094;51.356;-0.196;2022-10-31T03:17:49;100890.45;;;25.38;36.70
63916;BME280;50094;51.356;-0.196;2022-10-31T03:20:21;100889.20;;;25.13;36.70
63916;BME280;50094;51.356;-0.196;2022-10-31T03:22:51;100885.97;;;25.40;36.69
63916;BME280;50094;51.356;-0.196;2022-10-31T03:25:19;100889.75;;;25.42;36.66
63916;BME280;50094;51.356;-0.196;2022-10-31T03:27:48;100886.80;;;25.24;36.63
63916;BME280;50094;51.356;-0.196;2022-10-31T03:30:17;100884.61;;;25.46;36.64
63916;BME280;50094;51.356;-0.196;2022-10-31T03:32:47;100886.22;;;25.41;36.67
63916;BME280;50094;51.356;-0.196;2022-10-31T03:35:19;100888.40;;;25.67;36.68
63916;BME280;50094;51.356;-0.196;2022-10-31T03:37:49;100888.13;;;25.66;36.68
63916;BME280;50094;51.356;-0.196;2022-10-31T03:40:20;100887.33;;;25.39;36.72
63916;BME280;50094;51.356;-0.196;2022-10-31T03:42:53;100885.73;;;25.65;36.71
63916;BME280;50094;51.356;-0.196;2022-10-31T03:45:24;100888.40;;;25.34;36.78
63916;BME280;50094;51.356;-0.196;2022-10-31T03:47:54;100885.74;;;25.37;36.76
63916;BME280;50094;51.356;-0.196;2022-10-31T03:50:24;100891.48;;;25.41;36.74
63916;BME280;50094;51.356;-0.196;2022-10-31T03:52:56;100891.14;;;25.41;36.72
63916;BME280;50094;51.356;-0.196;2022-10-31T03:55:27;100888.28;;;25.40;36.72
63916;BME280;50094;51.356;-0.196;2022-10-31T03:57:59;100886.94;;;25.42;36.70
63916;BME280;50094;51.356;-0.196;2022-10-31T04:00:31;100885.64;;;25.37;36.74
63916;BME280;50094;51.356;-0.196;2022-10-31T04:03:05;100881.76;;;25.18;36.71
63916;BME280;50094;51.356;-0.196;2022-10-31T04:05:35;100884.06;;;25.61;36.75
63916;BME280;50094;51.356;-0.196;2022-10-31T04:08:07;100884.67;;;25.41;36.70
63916;BME280;50094;51.356;-0.196;2022-10-31T04:10:37;100887.41;;;25.15;36.72
63916;BME280;50094;51.356;-0.196;2022-10-31T04:13:08;100883.10;;;25.38;36.72
63916;BME280;50094;51.356;-0.196;2022-10-31T04:15:38;100876.38;;;25.59;36.75
63916;BME280;50094;51.356;-0.196;2022-10-31T04:18:07;100878.15;;;25.36;36.74
63916;BME280;50094;51.356;-0.196;2022-10-31T04:20:37;100884.07;;;25.59;36.75
63916;BME280;50094;51.356;-0.196;2022-10-31T04:23:16;100887.36;;;25.36;36.71
63916;BME280;50094;51.356;-0.196;2022-10-31T04:25:45;100882.83;;;25.29;36.76
63916;BME280;50094;51.356;-0.196;2022-10-31T04:28:13;100881.69;;;25.53;36.79
63916;BME280;50094;51.356;-0.196;2022-10-31T04:30:40;100878.90;;;25.28;36.78
63916;BME280;50094;51.356;-0.196;2022-10-31T04:33:08;100872.23;;;25.36;36.72
63916;BME280;50094;51.356;-0.196;2022-10-31T04:35:35;100866.63;;;25.35;36.74
63916;BME280;50094;51.356;-0.196;2022-10-31T04:38:03;100863.58;;;25.28;36.79
63916;BME280;50094;51.356;-0.196;2022-10-31T04:40:30;100862.40;;;25.29;36.77
63916;BME280;50094;51.356;-0.196;2022-10-31T04:42:57;100855.74;;;25.12;36.71
63916;BME280;50094;51.356;-0.196;2022-10-31T04:45:25;100856.49;;;25.31;36.73
63916;BME280;50094;51.356;-0.196;2022-10-31T04:47:52;100854.62;;;25.54;36.75
63916;BME280;50094;51.356;-0.196;2022-10-31T04:50:19;100853.74;;;25.33;36.71
63916;BME280;50094;51.356;-0.196;2022-10-31T04:52:47;100847.96;;;25.29;36.72
63916;BME280;50094;51.356;-0.196;2022-10-31T04:55:14;100848.85;;;25.36;36.67
63916;BME280;50094;51.356;-0.196;2022-10-31T04:57:42;100848.23;;;25.34;36.68
63916;BME280;50094;51.356;-0.196;2022-10-31T05:00:12;100847.21;;;25.61;36.67
63916;BME280;50094;51.356;-0.196;2022-10-31T05:02:44;100849.73;;;25.16;36.61
63916;BME280;50094;51.356;-0.196;2022-10-31T05:05:12;100845.49;;;25.14;36.64
63916;BME280;50094;51.356;-0.196;2022-10-31T05:07:40;100847.74;;;25.16;36.61
63916;BME280;50094;51.356;-0.196;2022-10-31T05:10:09;100845.33;;;25.18;36.61
63916;BME280;50094;51.356;-0.196;2022-10-31T05:12:37;100845.98;;;25.43;36.54
63916;BME280;50094;51.356;-0.196;2022-10-31T05:15:05;100839.90;;;25.22;36.54
63916;BME280;50094;51.356;-0.196;2022-10-31T05:17:33;100841.23;;;25.39;36.55
63916;BME280;50094;51.356;-0.196;2022-10-31T05:20:01;100835.76;;;25.38;36.55
63916;BME280;50094;51.356;-0.196;2022-10-31T05:22:28;100830.77;;;25.34;36.58
63916;BME280;50094;51.356;-0.196;2022-10-31T05:24:56;100831.28;;;25.35;36.56
63916;BME280;50094;51.356;-0.196;2022-10-31T05:27:23;100829.53;;;25.62;36.55
63916;BME280;50094;51.356;-0.196;2022-10-31T05:29:50;100829.57;;;25.33;36.57
63916;BME280;50094;51.356;-0.196;2022-10-31T05:32:18;100829.35;;;25.30;36.59
63916;BME280;50094;51.356;-0.196;2022-10-31T05:34:45;100835.44;;;25.34;36.55
63916;BME280;50094;51.356;-0.196;2022-10-31T05:37:12;100831.12;;;25.31;36.57
63916;BME280;50094;51.356;-0.196;2022-10-31T05:39:39;100833.23;;;25.11;36.57
63916;BME280;50094;51.356;-0.196;2022-10-31T05:42:07;100833.00;;;25.35;36.55
63916;BME280;50094;51.356;-0.196;2022-10-31T05:44:34;100833.40;;;25.52;36.62
63916;BME280;50094;51.356;-0.196;2022-10-31T05:47:01;100828.65;;;25.23;36.64
63916;BME280;50094;51.356;-0.196;2022-10-31T05:49:28;100825.97;;;25.18;36.68
63916;BME280;50094;51.356;-0.196;2022-10-31T05:51:56;100826.22;;;25.49;36.65
63916;BME280;50094;51.356;-0.196;2022-10-31T05:54:24;100824.62;;;25.48;36.65
63916;BME280;50094;51.356;-0.196;2022-10-31T05:56:51;100825.52;;;25.52;36.61
63916;BME280;50094;51.356;-0.196;2022-10-31T05:59:18;100829.04;;;25.52;36.61
63916;BME280;50094;51.356;-0.196;2022-10-31T06:01:46;100827.16;;;25.31;36.54
63916;BME280;50094;51.356;-0.196;2022-10-31T06:04:13;100823.43;;;25.26;36.56
63916;BME280;50094;51.356;-0.196;2022-10-31T06:06:40;100822.95;;;25.27;36.54
63916;BME280;50094;51.356;-0.196;2022-10-31T06:09:08;100822.56;;;25.27;36.53
63916;BME280;50094;51.356;-0.196;2022-10-31T06:11:35;100818.48;;;25.26;36.52
63916;BME280;50094;51.356;-0.196;2022-10-31T06:14:03;100818.62;;;25.07;36.49
63916;BME280;50094;51.356;-0.196;2022-10-31T06:16:30;100815.74;;;25.48;36.53
63916;BME280;50094;51.356;-0.196;2022-10-31T06:18:57;100810.39;;;25.28;36.48
63916;BME280;50094;51.356;-0.196;2022-10-31T06:21:25;100806.11;;;25.24;36.50
63916;BME280;50094;51.356;-0.196;2022-10-31T06:23:52;100806.65;;;25.01;36.52
63916;BME280;50094;51.356;-0.196;2022-10-31T06:26:20;100804.30;;;25.67;36.35
63916;BME280;50094;51.356;-0.196;2022-10-31T06:28:47;100803.86;;;25.29;36.48
63916;BME280;50094;51.356;-0.196;2022-10-31T06:31:15;100801.01;;;25.30;36.55
63916;BME280;50094;51.356;-0.196;2022-10-31T06:33:42;100803.12;;;25.23;36.56
63916;BME280;50094;51.356;-0.196;2022-10-31T06:36:10;100801.81;;;25.22;36.57
63916;BME280;50094;51.356;-0.196;2022-10-31T06:38:37;100806.35;;;25.21;36.55
63916;BME280;50094;51.356;-0.196;2022-10-31T06:41:06;100803.39;;;25.47;36.55
63916;BME280;50094;51.356;-0.196;2022-10-31T06:43:33;100800.43;;;25.46;36.54
63916;BME280;50094;51.356;-0.196;2022-10-31T06:46:03;100800.21;;;25.53;36.48
63916;BME280;50094;51.356;-0.196;2022-10-31T06:48:32;100796.66;;;25.47;36.51
63916;BME280;50094;51.356;-0.196;2022-10-31T06:50:59;100795.05;;;25.52;36.47
63916;BME280;50094;51.356;-0.196;2022-10-31T06:53:27;100794.20;;;25.23;36.47
63916;BME280;50094;51.356;-0.196;2022-10-31T06:55:55;100794.73;;;25.43;36.48
63916;BME280;50094;51.356;-0.196;2022-10-31T06:58:23;100795.43;;;25.43;36.47
63916;BME280;50094;51.356;-0.196;2022-10-31T07:00:51;100787.44;;;25.17;36.45
63916;BME280;50094;51.356;-0.196;2022-10-31T07:03:19;100787.81;;;25.28;36.38
63916;BME280;50094;51.356;-0.196;2022-10-31T07:05:46;100784.36;;;25.50;36.40
63916;BME280;50094;51.356;-0.196;2022-10-31T07:08:14;100782.65;;;25.46;36.41
63916;BME280;50094;51.356;-0.196;2022-10-31T07:10:42;100781.28;;;25.26;36.35
63916;BME280;50094;51.356;-0.196;2022-10-31T07:13:12;100779.79;;;25.49;36.38
63916;BME280;50094;51.356;-0.196;2022-10-31T07:15:41;100778.08;;;25.21;36.36
63916;BME280;50094;51.356;-0.196;2022-10-31T07:18:09;100783.69;;;25.00;36.34
63916;BME280;50094;51.356;-0.196;2022-10-31T07:20:37;100783.33;;;25.13;36.41
63916;BME280;50094;51.356;-0.196;2022-10-31T07:23:05;100783.88;;;25.23;36.33
63916;BME280;50094;51.356;-0.196;2022-10-31T07:25:32;100783.07;;;25.14;36.38
63916;BME280;50094;51.356;-0.196;2022-10-31T07:28:00;100784.61;;;25.25;36.31
63916;BME280;50094;51.356;-0.196;2022-10-31T07:30:27;100783.66;;;25.03;36.30
63916;BME280;50094;51.356;-0.196;2022-10-31T07:32:55;100783.10;;;25.26;36.28
63916;BME280;50094;51.356;-0.196;2022-10-31T07:35:25;100782.62;;;25.49;36.31
63916;BME280;50094;51.356;-0.196;2022-10-31T07:37:52;100780.70;;;25.12;36.37
63916;BME280;50094;51.356;-0.196;2022-10-31T07:40:21;100780.01;;;25.19;36.32
63916;BME280;50094;51.356;-0.196;2022-10-31T07:42:49;100775.67;;;25.29;36.25
63916;BME280;50094;51.356;-0.196;2022-10-31T07:45:19;100774.88;;;25.04;36.26
63916;BME280;50094;51.356;-0.196;2022-10-31T07:47:48;100772.18;;;25.18;36.35
63916;BME280;50094;51.356;-0.196;2022-10-31T07:50:18;100771.87;;;25.18;36.36
63916;BME280;50094;51.356;-0.196;2022-10-31T07:52:45;100768.16;;;25.25;36.28
63916;BME280;50094;51.356;-0.196;2022-10-31T07:55:13;100766.61;;;25.29;36.26
63916;BME280;50094;51.356;-0.196;2022-10-31T07:57:41;100767.51;;;25.40;36.18
63916;BME280;50094;51.356;-0.196;2022-10-31T08:00:10;100769.98;;;25.08;36.21
63916;BME280;50094;51.356;-0.196;2022-10-31T08:02:37;100773.69;;;25.35;36.18
63916;BME280;50094;51.356;-0.196;2022-10-31T08:05:05;100774.16;;;25.15;36.15
63916;BME280;50094;51.356;-0.196;2022-10-31T08:07:36;100775.01;;;25.41;36.11
63916;BME280;50094;51.356;-0.196;2022-10-31T08:10:05;100773.10;;;25.18;36.13
63916;BME280;50094;51.356;-0.196;2022-10-31T08:12:32;100772.26;;;25.31;36.21
63916;BME280;50094;51.356;-0.196;2022-10-31T08:14:59;100772.46;;;25.18;36.30
63916;BME280;50094;51.356;-0.196;2022-10-31T08:17:27;100771.79;;;25.21;36.30
63916;BME280;50094;51.356;-0.196;2022-10-31T08:19:55;100762.27;;;25.29;36.21
63916;BME280;50094;51.356;-0.196;2022-10-31T08:22:22;100757.62;;;25.49;36.30
63916;BME280;50094;51.356;-0.196;2022-10-31T08:24:50;100753.85;;;25.26;36.29
63916;BME280;50094;51.356;-0.196;2022-10-31T08:27:17;100758.79;;;25.24;36.30
63916;BME280;50094;51.356;-0.196;2022-10-31T08:29:44;100760.78;;;25.49;36.31
63916;BME280;50094;51.356;-0.196;2022-10-31T08:32:12;100760.00;;;24.90;36.38
63916;BME280;50094;51.356;-0.196;2022-10-31T08:34:40;100757.36;;;24.96;36.36
63916;BME280;50094;51.356;-0.196;2022-10-31T08:37:07;100756.55;;;25.13;36.40
63916;BME280;50094;51.356;-0.196;2022-10-31T08:39:35;100747.31;;;25.13;36.41
63916;BME280;50094;51.356;-0.196;2022-10-31T08:42:02;100754.43;;;25.15;36.41
63916;BME280;50094;51.356;-0.196;2022-10-31T08:44:29;100753.99;;;25.18;36.39
63916;BME280;50094;51.356;-0.196;2022-10-31T08:46:57;100752.13;;;25.47;36.38
63916;BME280;50094;51.356;-0.196;2022-10-31T08:49:25;100750.45;;;25.11;36.47
63916;BME280;50094;51.356;-0.196;2022-10-31T08:51:52;100751.56;;;25.15;36.50
63916;BME280;50094;51.356;-0.196;2022-10-31T08:54:19;100747.37;;;25.46;36.47
63916;BME280;50094;51.356;-0.196;2022-10-31T08:56:47;100745.95;;;25.19;36.50
63916;BME280;50094;51.356;-0.196;2022-10-31T08:59:14;100744.77;;;25.24;36.46
63916;BME280;50094;51.356;-0.196;2022-10-31T09:01:42;100747.90;;;25.26;36.50
63916;BME280;50094;51.356;-0.196;2022-10-31T09:04:09;100741.47;;;25.37;36.44
63916;BME280;50094;51.356;-0.196;2022-10-31T09:06:36;100736.39;;;25.18;36.46
63916;BME280;50094;51.356;-0.196;2022-10-31T09:09:03;100730.80;;;25.39;36.46
63916;BME280;50094;51.356;-0.196;2022-10-31T09:11:31;100727.29;;;25.40;36.49
63916;BME280;50094;51.356;-0.196;2022-10-31T09:13:58;100724.85;;;25.38;36.55
63916;BME280;50094;51.356;-0.196;2022-10-31T09:16:26;100721.00;;;25.69;36.56
63916;BME280;50094;51.356;-0.196;2022-10-31T09:18:53;100717.91;;;25.41;36.60
63916;BME280;50094;51.356;-0.196;2022-10-31T09:21:21;100712.35;;;25.40;36.62
63916;BME280;50094;51.356;-0.196;2022-10-31T09:23:49;100715.63;;;25.39;36.76
63916;BME280;50094;51.356;-0.196;2022-10-31T09:26:17;100719.71;;;25.74;36.69
63916;BME280;50094;51.356;-0.196;2022-10-31T09:28:44;100717.55;;;25.52;36.66
63916;BME280;50094;51.356;-0.196;2022-10-31T09:31:12;100716.84;;;25.32;36.64
63916;BME280;50094;51.356;-0.196;2022-10-31T09:33:40;100713.56;;;25.38;36.61
63916;BME280;50094;51.356;-0.196;2022-10-31T09:36:08;100711.19;;;25.61;36.65
63916;BME280;50094;51.356;-0.196;2022-10-31T09:38:35;100708.69;;;25.87;36.63
63916;BME280;50094;51.356;-0.196;2022-10-31T09:41:08;100704.32;;;25.36;36.66
63916;BME280;50094;51.356;-0.196;2022-10-31T09:43:50;100697.47;;;25.57;36.69
63916;BME280;50094;51.356;-0.196;2022-10-31T09:46:30;100694.17;;;25.53;36.70
63916;BME280;50094;51.356;-0.196;2022-10-31T09:49:23;100692.20;;;25.56;36.70
63916;BME280;50094;51.356;-0.196;2022-10-31T09:51:57;100683.96;;;25.64;36.66
63916;BME280;50094;51.356;-0.196;2022-10-31T09:54:32;100682.58;;;25.73;36.59
63916;BME280;50094;51.356;-0.196;2022-10-31T09:57:02;100684.72;;;25.65;36.62
63916;BME280;50094;51.356;-0.196;2022-10-31T09:59:31;100685.35;;;25.60;36.67
63916;BME280;50094;51.356;-0.196;2022-10-31T10:02:02;100679.13;;;25.42;36.65
63916;BME280;50094;51.356;-0.196;2022-10-31T10:04:37;100671.65;;;25.62;36.64
63916;BME280;50094;51.356;-0.196;2022-10-31T10:07:16;100662.61;;;25.49;36.62
63916;BME280;50094;51.356;-0.196;2022-10-31T10:09:46;100664.18;;;25.56;36.59
63916;BME280;50094;51.356;-0.196;2022-10-31T10:12:19;100657.43;;;25.49;36.55
63916;BME280;50094;51.356;-0.196;2022-10-31T10:15:00;100652.88;;;25.70;36.59
63916;BME280;50094;51.356;-0.196;2022-10-31T10:17:37;100654.83;;;25.51;36.57
63916;BME280;50094;51.356;-0.196;2022-10-31T10:20:28;100652.39;;;25.73;36.53
63916;BME280;50094;51.356;-0.196;2022-10-31T10:23:22;100646.31;;;25.45;36.55
63916;BME280;50094;51.356;-0.196;2022-10-31T10:25:55;100645.08;;;25.59;36.63
63916;BME280;50094;51.356;-0.196;2022-10-31T10:28:30;100646.63;;;25.66;36.63
63916;BME280;50094;51.356;-0.196;2022-10-31T10:31:03;100649.08;;;25.45;36.64
63916;BME280;50094;51.356;-0.196;2022-10-31T10:33:35;100652.26;;;25.47;36.58
63916;BME280;50094;51.356;-0.196;2022-10-31T10:36:05;100650.40;;;25.29;36.53
63916;BME280;50094;51.356;-0.196;2022-10-31T10:38:39;100642.49;;;25.58;36.47
63916;BME280;50094;51.356;-0.196;2022-10-31T10:41:12;100646.38;;;25.63;36.47
63916;BME280;50094;51.356;-0.196;2022-10-31T10:43:41;100641.68;;;25.70;36.42
63916;BME280;50094;51.356;-0.196;2022-10-31T10:46:17;100644.22;;;25.72;36.45
63916;BME280;50094;51.356;-0.196;2022-10-31T10:48:48;100637.75;;;25.65;36.45
63916;BME280;50094;51.356;-0.196;2022-10-31T10:51:21;100635.79;;;25.87;36.45
63916;BME280;50094;51.356;-0.196;2022-10-31T10:54:00;100635.05;;;25.57;36.44
63916;BME280;50094;51.356;-0.196;2022-10-31T10:56:39;100636.86;;;25.82;36.48
63916;BME280;50094;51.356;-0.196;2022-10-31T10:59:12;100628.22;;;25.71;36.55
63916;BME280;50094;51.356;-0.196;2022-10-31T11:01:40;100618.00;;;25.49;36.49
63916;BME280;50094;51.356;-0.196;2022-10-31T11:04:29;100612.26;;;25.61;36.45
63916;BME280;50094;51.356;-0.196;2022-10-31T11:06:59;100608.53;;;25.57;36.39
63916;BME280;50094;51.356;-0.196;2022-10-31T11:09:27;100604.89;;;25.78;36.40
63916;BME280;50094;51.356;-0.196;2022-10-31T11:11:55;100600.84;;;25.25;36.39
63916;BME280;50094;51.356;-0.196;2022-10-31T11:14:24;100600.96;;;25.52;36.39
63916;BME280;50094;51.356;-0.196;2022-10-31T11:16:54;100594.15;;;25.77;36.40
63916;BME280;50094;51.356;-0.196;2022-10-31T11:19:25;100589.58;;;25.70;36.37
63916;BME280;50094;51.356;-0.196;2022-10-31T11:21:53;100583.79;;;25.70;36.41
63916;BME280;50094;51.356;-0.196;2022-10-31T11:24:22;100588.86;;;25.62;36.43
63916;BME280;50094;51.356;-0.196;2022-10-31T11:26:51;100581.47;;;25.41;36.41
63916;BME280;50094;51.356;-0.196;2022-10-31T11:29:21;100582.00;;;25.44;36.38
63916;BME280;50094;51.356;-0.196;2022-10-31T11:31:52;100578.28;;;25.63;36.37
63916;BME280;50094;51.356;-0.196;2022-10-31T11:34:27;100579.02;;;25.47;36.36
63916;BME280;50094;51.356;-0.196;2022-10-31T11:37:01;100577.82;;;25.43;36.34
63916;BME280;50094;51.356;-0.196;2022-10-31T11:39:29;100572.09;;;25.74;36.41
63916;BME280;50094;51.356;-0.196;2022-10-31T11:42:01;100561.59;;;25.49;36.33
63916;BME280;50094;51.356;-0.196;2022-10-31T11:44:30;100553.26;;;25.72;36.30
63916;BME280;50094;51.356;-0.196;2022-10-31T11:47:00;100540.71;;;25.51;36.31
63916;BME280;50094;51.356;-0.196;2022-10-31T11:49:30;100535.27;;;25.75;36.22
63916;BME280;50094;51.356;-0.196;2022-10-31T11:52:08;100528.92;;;25.78;36.29
63916;BME280;50094;51.356;-0.196;2022-10-31T11:54:45;100531.06;;;25.65;36.23
63916;BME280;50094;51.356;-0.196;2022-10-31T11:57:31;100518.26;;;25.56;36.24
63916;BME280;50094;51.356;-0.196;2022-10-31T12:00:02;100514.66;;;25.78;36.30
63916;BME280;50094;51.356;-0.196;2022-10-31T12:02:30;100512.72;;;25.54;36.26
63916;BME280;50094;51.356;-0.196;2022-10-31T12:05:03;100515.73;;;25.59;36.26
63916;BME280;50094;51.356;-0.196;2022-10-31T12:07:31;100515.59;;;25.47;36.29
63916;BME280;50094;51.356;-0.196;2022-10-31T12:09:59;100505.45;;;25.75;36.19
63916;BME280;50094;51.356;-0.196;2022-10-31T12:12:37;100501.49;;;25.73;36.15
63916;BME280;50094;51.356;-0.196;2022-10-31T12:15:19;100492.12;;;25.72;36.12
63916;BME280;50094;51.356;-0.196;2022-10-31T12:17:52;100486.24;;;25.56;36.13
63916;BME280;50094;51.356;-0.196;2022-10-31T12:20:26;100473.56;;;25.62;36.14
63916;BME280;50094;51.356;-0.196;2022-10-31T12:23:02;100469.33;;;25.75;36.10
63916;BME280;50094;51.356;-0.196;2022-10-31T12:25:38;100459.61;;;25.47;36.13
63916;BME280;50094;51.356;-0.196;2022-10-31T12:28:52;100449.79;;;25.63;36.21
63916;BME280;50094;51.356;-0.196;2022-10-31T12:31:33;100444.60;;;25.55;36.26
63916;BME280;50094;51.356;-0.196;2022-10-31T12:34:49;100446.95;;;25.39;36.25
63916;BME280;50094;51.356;-0.196;2022-10-31T12:37:32;100430.49;;;25.59;36.21
63916;BME280;50094;51.356;-0.196;2022-10-31T12:40:17;100422.70;;;25.42;36.18
63916;BME280;50094;51.356;-0.196;2022-10-31T12:42:57;100415.81;;;25.65;36.24
63916;BME280;50094;51.356;-0.196;2022-10-31T12:45:36;100408.35;;;25.66;36.19
63916;BME280;50094;51.356;-0.196;2022-10-31T12:48:20;100398.43;;;25.42;36.23
63916;BME280;50094;51.356;-0.196;2022-10-31T12:50:56;100397.26;;;25.65;36.31
63916;BME280;50094;51.356;-0.196;2022-10-31T12:53:38;100398.77;;;25.65;36.34
63916;BME280;50094;51.356;-0.196;2022-10-31T12:56:23;100386.94;;;25.64;36.41
63916;BME280;50094;51.356;-0.196;2022-10-31T12:58:59;100385.95;;;25.63;36.37